Nearby METAR Reports

 

KLBE - Latrobe/Westmorl, Pennsylvania, USA
Distance from station: SE 16mi, 26km
Updated: Fri, 24-Nov-2017 3:55am EST
Clear
Clear
 Wind from calm
Wind: Calm
Temperature: 25°F , -4°C
Dew Point: 23°F , -5°C
Humidity: 93%
Barometer: 30.01 inHg , 1016.3 hPa
Clouds: Clear
Visibility: 10 miles , 16 km
2017/11/24 08:55 KLBE 240855Z AUTO 00000KT 10SM CLR M04/M05 A3001 RMK AO2
KAGC - Pittsburgh/Alleg, Pennsylvania, USA
Distance from station: WSW 18mi, 30km
Updated: Fri, 24-Nov-2017 3:53am EST
Clear
Clear
 Wind from S
Wind: S 8 mph , 13 km/h
Temperature: 30°F , -1°C
Wind Chill: 22°F , -6°C
Dew Point: 19°F , -7°C
Humidity: 64%
Barometer: 29.99 inHg , 1015.6 hPa
Clouds: Clear
Visibility: 10 miles , 16 km
2017/11/24 08:53 KAGC 240853Z AUTO 18007KT 10SM CLR M01/M07 A2999 RMK AO2 SLP172 T10111072 56008
 
KBTP - Butler Co., Pennsylvania, USA
Distance from station: NW 29mi, 47km
Updated: Fri, 24-Nov-2017 3:56am EST
Clear
Clear
 Wind from S
Wind: S 5 mph , 7 km/h
Temperature: 30°F , -1°C
Wind Chill: 25°F , -4°C
Dew Point: 21°F , -6°C
Humidity: 69%
Barometer: 29.99 inHg , 1015.6 hPa
Clouds: Clear
Visibility: 10 miles , 16 km
2017/11/24 08:56 KBTP 240856Z AUTO 18004KT 10SM CLR M01/M06 A2999 RMK AO2 SLP173 T10111056 56010 FZRANO
KIDI - Indiana/Stewart, Pennsylvania, USA
Distance from station: ENE 29mi, 47km
Updated: Fri, 24-Nov-2017 3:55am EST
Clear
Clear
 Wind from calm
Wind: Calm
Temperature: 28°F , -2°C
Dew Point: 23°F , -5°C
Humidity: 80%
Barometer: 30.02 inHg , 1016.6 hPa
Clouds: Clear
Visibility: 10 miles , 16 km
2017/11/24 08:55 KIDI 240855Z AUTO 00000KT 10SM CLR M02/M05 A3002 RMK A01
 
KPIT - Pittsburgh, Pennsylvania, USA
Distance from station: W 36mi, 57km
Updated: Fri, 24-Nov-2017 3:51am EST
Clear
Clear
 Wind from SSE
Wind: SSE 6 mph , 9 km/h
Temperature: 27°F , -3°C
Wind Chill: 20°F , -7°C
Dew Point: 23°F , -5°C
Humidity: 86%
Barometer: 29.98 inHg , 1015.2 hPa
Clouds: Clear
Visibility: 10 miles , 16 km
2017/11/24 08:51 KPIT 240851Z 16005KT 10SM CLR M03/M05 A2998 RMK AO2 SLP172 T10281050 56012 $
KJST - Johnstown, Pennsylvania, USA
Distance from station: ESE 41mi, 66km
Updated: Fri, 24-Nov-2017 3:54am EST
Clear
Clear
 Wind from SSW
Wind: SSW 7 mph , 11 km/h
Temperature: 30°F , -1°C
Wind Chill: 23°F , -5°C
Dew Point: 19°F , -7°C
Humidity: 64%
Barometer: 29.95 inHg , 1014.2 hPa
Clouds: Clear
Visibility: 10 miles , 16 km
2017/11/24 08:54 KJST 240854Z AUTO 20006KT 10SM CLR M01/M07 A2995 RMK AO2 SLP165 T10061067 58007
 
KAFJ - Washington, Pennsylvania, USA
Distance from station: WSW 42mi, 68km
Updated: Fri, 24-Nov-2017 3:56am EST
Clear
Clear
 Wind from calm
Wind: Calm
Temperature: 25°F , -4°C
Dew Point: 21°F , -6°C
Humidity: 86%
Barometer: 30.03 inHg , 1016.9 hPa
Clouds: Clear
Visibility: 10 miles , 16 km
2017/11/24 08:56 KAFJ 240856Z AUTO 00000KT 10SM CLR M04/M06 A3003 RMK AO2 SLP180 T10391061 56009 FZRANO
KBVI - Beaver Falls Arp, Pennsylvania, USA
Distance from station: WNW 48mi, 77km
Updated: Wed, 22-Nov-2017 8:47pm EST
NOT Current
Overcast
Overcast
 Wind from WNW
Wind: WNW 3 mph , 6 km/h
Barometer: 30.21 inHg , 1023 hPa
Clouds: Overcast
Visibility: 10 miles , 16 km
Cloud details: Overcast 3700 ft
2017/11/23 01:47 KBVI 230147Z 30003KT 10SM OVC037 A3021 RMK LAST